createdAt,value
2022-09-22T00:02:15.915Z,2.42
2022-09-22T00:07:17.447Z,2.37
2022-09-22T00:12:18.683Z,2.47
2022-09-22T00:17:20.697Z,2.40
2022-09-22T00:22:22.034Z,2.42
2022-09-22T00:27:24.170Z,3.03
2022-09-22T00:32:25.475Z,2.43
2022-09-22T00:37:26.724Z,2.50
2022-09-22T00:42:28.614Z,2.53
2022-09-22T00:47:40.802Z,2.50
2022-09-22T00:52:46.123Z,2.63
2022-09-22T00:57:48.042Z,2.37
2022-09-22T01:02:50.674Z,2.40
2022-09-22T01:07:52.029Z,2.60
2022-09-22T01:13:12.162Z,2.30
2022-09-22T01:18:13.379Z,2.40
2022-09-22T01:23:26.953Z,2.20
2022-09-22T01:28:40.645Z,2.40
2022-09-22T01:34:00.774Z,2.30
2022-09-22T01:39:14.375Z,2.35
2022-09-22T01:44:25.193Z,2.50
2022-09-22T01:49:28.865Z,2.50
2022-09-22T01:55:05.717Z,2.40
2022-09-22T02:00:08.499Z,2.23
2022-09-22T02:05:13.213Z,2.22
2022-09-22T02:10:17.663Z,2.33
2022-09-22T02:15:37.398Z,2.30
2022-09-22T02:20:38.976Z,2.53
2022-09-22T02:25:40.594Z,2.43
2022-09-22T02:30:50.601Z,3.63
2022-09-22T02:36:12.497Z,2.90
2022-09-22T02:41:18.853Z,2.50
2022-09-22T02:46:23.921Z,2.40
2022-09-22T02:51:25.274Z,2.33
2022-09-22T02:56:26.542Z,2.20
2022-09-22T03:01:27.800Z,2.47
2022-09-22T03:06:29.147Z,2.20
2022-09-22T03:11:30.454Z,2.28
2022-09-22T03:16:31.732Z,2.63
2022-09-22T03:21:32.997Z,2.33
2022-09-22T03:26:34.824Z,2.47
2022-09-22T03:31:36.100Z,2.70
2022-09-22T03:36:37.334Z,3.42
2022-09-22T03:41:40.410Z,5.90
2022-09-22T03:46:41.647Z,6.10
2022-09-22T03:51:42.869Z,8.93
2022-09-22T03:56:44.099Z,7.80
2022-09-22T04:01:45.559Z,5.30
2022-09-22T04:06:46.876Z,3.73
2022-09-22T04:11:48.463Z,2.60
2022-09-22T04:16:49.736Z,2.30
2022-09-22T04:21:56.211Z,2.60
2022-09-22T04:32:19.786Z,2.93
2022-09-22T04:37:21.049Z,3.35
2022-09-22T04:42:22.325Z,2.90
2022-09-22T04:47:23.574Z,2.30
2022-09-22T04:52:25.004Z,3.10
2022-09-22T04:57:26.785Z,3.70
2022-09-22T05:02:28.040Z,3.72
2022-09-22T05:07:29.280Z,3.65
2022-09-22T05:12:31.515Z,3.33
2022-09-22T05:17:33.486Z,3.05
2022-09-22T05:22:39.710Z,2.90
2022-09-22T05:27:48.369Z,2.40
2022-09-22T05:32:49.626Z,2.88
2022-09-22T05:37:51.455Z,4.30
2022-09-22T05:42:53.463Z,4.00
2022-09-22T05:47:54.682Z,3.00
2022-09-22T05:53:06.272Z,3.92
2022-09-22T05:58:09.909Z,5.32
2022-09-22T06:03:13.116Z,6.10
2022-09-22T06:08:14.485Z,4.30
2022-09-22T06:13:15.761Z,3.57
2022-09-22T06:18:23.453Z,3.65
2022-09-22T06:23:26.342Z,4.82
2022-09-22T06:28:27.672Z,3.43
2022-09-22T06:33:29.557Z,3.53
2022-09-22T06:38:31.922Z,3.13
2022-09-22T06:43:37.743Z,3.50
2022-09-22T06:48:39.342Z,4.07
2022-09-22T06:53:46.618Z,3.80
2022-09-22T06:59:08.705Z,4.18
2022-09-22T07:04:12.568Z,4.03
2022-09-22T07:09:13.798Z,3.65
2022-09-22T07:14:15.256Z,3.92
2022-09-22T07:19:16.579Z,4.00
2022-09-22T07:24:17.826Z,4.45
2022-09-22T07:29:19.142Z,4.57
2022-09-22T07:34:20.463Z,4.05
2022-09-22T07:39:21.831Z,2.90
2022-09-22T07:44:44.506Z,3.90
2022-09-22T07:49:46.136Z,2.83
2022-09-22T07:54:47.390Z,2.88
2022-09-22T07:59:48.699Z,10.67
2022-09-22T08:04:49.967Z,2.78
2022-09-22T08:09:51.234Z,1.92
2022-09-22T08:14:53.366Z,2.30
2022-09-22T08:19:55.547Z,1.70
2022-09-22T08:24:56.801Z,1.80
2022-09-22T08:29:58.086Z,2.03
2022-09-22T08:34:59.339Z,2.10
2022-09-22T08:40:00.665Z,1.95
2022-09-22T08:45:06.965Z,1.90
2022-09-22T08:50:42.685Z,1.90
2022-09-22T08:55:44.451Z,1.95
2022-09-22T09:00:49.706Z,1.90
2022-09-22T09:06:02.047Z,1.60
2022-09-22T09:11:06.827Z,1.70
2022-09-22T09:16:11.154Z,1.73
2022-09-22T09:21:14.524Z,2.17
2022-09-22T09:26:16.782Z,1.43
2022-09-22T09:31:21.563Z,1.70
2022-09-22T09:36:25.621Z,1.60
2022-09-22T09:41:31.695Z,1.67
2022-09-22T09:52:29.779Z,1.60
2022-09-22T09:57:31.020Z,1.50
2022-09-22T10:02:58.781Z,1.70
2022-09-22T10:08:01.225Z,1.50
2022-09-22T10:13:18.077Z,1.75
2022-09-22T10:18:25.566Z,1.73
2022-09-22T10:23:28.710Z,2.08
2022-09-22T10:28:31.006Z,1.98
2022-09-22T10:33:33.087Z,2.10
2022-09-22T10:38:36.332Z,2.10
2022-09-22T10:43:48.733Z,1.67
2022-09-22T10:48:53.107Z,1.80
2022-09-22T10:54:06.276Z,1.80
2022-09-22T10:59:13.390Z,1.90
2022-09-22T11:04:44.279Z,2.03
2022-09-22T11:10:11.956Z,1.80
2022-09-22T11:15:26.002Z,2.05
2022-09-22T11:20:36.738Z,1.45
2022-09-22T11:25:50.791Z,1.43
2022-09-22T11:30:53.294Z,1.25
2022-09-22T11:36:03.641Z,1.20
2022-09-22T11:41:04.942Z,1.47
2022-09-22T11:46:18.386Z,1.50
2022-09-22T11:51:38.591Z,2.53
2022-09-22T11:56:44.472Z,1.50
2022-09-22T12:01:47.299Z,1.50
2022-09-22T12:06:51.310Z,1.30
2022-09-22T12:11:54.954Z,1.10
2022-09-22T12:17:22.872Z,1.20
2022-09-22T12:22:47.929Z,1.30
2022-09-22T12:27:55.013Z,1.10
2022-09-22T12:32:56.495Z,1.23
2022-09-22T12:38:00.676Z,1.20
2022-09-22T12:43:01.975Z,1.30
2022-09-22T12:48:17.790Z,1.17
2022-09-22T12:53:21.846Z,1.00
2022-09-22T12:58:26.186Z,1.00
2022-09-22T13:03:27.486Z,1.20
2022-09-22T13:08:31.834Z,1.13
2022-09-22T13:13:40.177Z,1.00
2022-09-22T13:18:51.524Z,1.00
2022-09-22T13:23:58.921Z,1.20
2022-09-22T13:29:10.555Z,1.00
2022-09-22T13:34:18.513Z,1.15
2022-09-22T13:39:21.069Z,1.00
2022-09-22T13:44:27.960Z,1.17
2022-09-22T13:49:40.910Z,1.00
2022-09-22T13:54:45.699Z,1.48
2022-09-22T13:59:47.004Z,1.10
2022-09-22T14:16:59.449Z,1.30
2022-09-22T14:22:13.733Z,1.50
2022-09-22T14:27:18.131Z,1.30
2022-09-22T14:32:30.203Z,1.30
2022-09-22T14:37:40.202Z,1.00
2022-09-22T14:42:41.452Z,1.10
2022-09-22T14:47:43.132Z,1.02
2022-09-22T14:52:53.509Z,1.00
2022-09-22T14:57:55.074Z,1.10
2022-09-22T15:02:57.996Z,1.02
2022-09-22T15:07:59.862Z,1.00
2022-09-22T15:13:18.935Z,1.57
2022-09-22T15:18:20.191Z,1.02
2022-09-22T15:23:41.876Z,1.15
2022-09-22T15:28:43.459Z,1.43
2022-09-22T15:33:44.724Z,1.00
2022-09-22T15:38:46.030Z,1.00
2022-09-22T15:43:47.451Z,1.00
2022-09-22T15:48:48.766Z,1.40
2022-09-22T15:53:51.095Z,0.90
2022-09-22T15:58:52.434Z,0.90
2022-09-22T16:03:54.311Z,1.10
2022-09-22T16:08:56.326Z,1.30
2022-09-22T16:13:58.843Z,1.30
2022-09-22T16:19:00.423Z,1.13
2022-09-22T16:24:03.964Z,1.40
2022-09-22T16:29:06.605Z,1.15
2022-09-22T16:34:08.578Z,1.10
2022-09-22T16:39:09.897Z,1.40
2022-09-22T16:44:11.156Z,1.10
2022-09-22T16:49:15.546Z,1.00
2022-09-22T16:54:19.963Z,1.13
2022-09-22T16:59:22.430Z,1.20
2022-09-22T17:04:23.852Z,1.00
2022-09-22T17:09:25.118Z,1.20
2022-09-22T17:14:27.712Z,1.10
2022-09-22T17:19:29.659Z,1.23
2022-09-22T17:24:30.968Z,1.30
2022-09-22T17:29:32.558Z,5.38
2022-09-22T17:34:34.392Z,4.47
2022-09-22T17:39:35.893Z,2.87
2022-09-22T17:44:37.145Z,2.45
2022-09-22T17:49:57.137Z,2.78
2022-09-22T17:55:08.301Z,2.87
2022-09-22T18:00:11.046Z,2.40
2022-09-22T18:05:13.419Z,3.10
2022-09-22T18:10:15.796Z,4.17
2022-09-22T18:15:17.758Z,4.20
2022-09-22T18:20:21.865Z,3.70
2022-09-22T18:25:24.022Z,3.03
2022-09-22T18:30:25.676Z,4.00
2022-09-22T18:35:28.741Z,3.58
2022-09-22T18:40:30.132Z,3.97
2022-09-22T18:45:32.130Z,4.47
2022-09-22T18:50:34.796Z,6.03
2022-09-22T18:55:36.511Z,5.20
2022-09-22T19:00:37.965Z,3.58
2022-09-22T19:05:39.355Z,4.50
2022-09-22T19:10:40.598Z,2.92
2022-09-22T19:15:42.154Z,3.13
2022-09-22T19:20:43.809Z,3.10
2022-09-22T19:25:51.757Z,4.28
2022-09-22T19:30:53.024Z,5.07
2022-09-22T19:35:54.313Z,3.83
2022-09-22T19:40:56.187Z,5.38
2022-09-22T19:45:57.523Z,4.17
2022-09-22T19:50:59.446Z,4.45
2022-09-22T19:56:01.586Z,4.33
2022-09-22T20:01:06.314Z,3.95
2022-09-22T20:06:07.683Z,3.60
2022-09-22T20:11:25.718Z,3.80
2022-09-22T20:16:28.138Z,4.15
2022-09-22T20:21:33.133Z,3.70
2022-09-22T20:26:34.450Z,4.03
2022-09-22T20:31:36.230Z,3.75
2022-09-22T20:36:37.554Z,3.50
2022-09-22T20:41:39.512Z,3.70
2022-09-22T20:46:45.028Z,3.80
2022-09-22T20:51:47.353Z,4.10
2022-09-22T20:56:49.197Z,4.03
2022-09-22T21:01:50.522Z,4.83
2022-09-22T21:06:51.835Z,3.80
2022-09-22T21:11:54.451Z,3.83
2022-09-22T21:16:55.681Z,4.10
2022-09-22T21:21:56.903Z,3.60
2022-09-22T21:26:59.204Z,3.87
2022-09-22T21:32:00.541Z,4.20
2022-09-22T21:37:01.918Z,3.70
2022-09-22T21:42:03.524Z,4.25
2022-09-22T21:47:04.817Z,4.05
2022-09-22T21:52:06.102Z,4.10
2022-09-22T21:57:07.322Z,4.50
2022-09-22T22:02:08.571Z,4.20
2022-09-22T22:07:10.013Z,3.90
2022-09-22T22:12:11.880Z,3.95
2022-09-22T22:17:13.140Z,4.23
2022-09-22T22:22:15.179Z,4.20
2022-09-22T22:27:16.788Z,4.37
2022-09-22T22:32:18.303Z,4.30
2022-09-22T22:37:19.813Z,4.53
2022-09-22T22:42:21.279Z,4.07
2022-09-22T22:47:22.693Z,4.20
2022-09-22T22:52:23.956Z,4.33
2022-09-22T22:57:26.357Z,3.90
2022-09-22T23:02:29.618Z,4.47
2022-09-22T23:07:30.941Z,4.00
2022-09-22T23:12:35.490Z,4.40
2022-09-22T23:17:40.135Z,4.40
2022-09-22T23:22:41.368Z,4.00
2022-09-22T23:27:47.810Z,4.25
2022-09-22T23:32:50.238Z,4.17
2022-09-22T23:37:51.825Z,4.45
2022-09-22T23:42:54.234Z,4.67
2022-09-22T23:47:55.718Z,4.47
2022-09-22T23:52:56.953Z,4.30
2022-09-22T23:57:58.346Z,3.60
